sensor_id;sensor_type;location;lat;lon;timestamp;P1;durP1;ratioP1;P2;durP2;ratioP2
74933;SDS011;63499;53.232;7.492;2023-04-25T00:59:28;18.55;;;3.80;;
74933;SDS011;63499;53.232;7.492;2023-04-25T01:01:56;19.80;;;3.03;;
74933;SDS011;63499;53.232;7.492;2023-04-25T01:04:24;16.90;;;2.58;;
74933;SDS011;63499;53.232;7.492;2023-04-25T01:06:51;11.98;;;2.80;;
74933;SDS011;63499;53.232;7.492;2023-04-25T01:09:18;13.77;;;2.20;;
74933;SDS011;63499;53.232;7.492;2023-04-25T01:11:45;20.27;;;3.05;;
74933;SDS011;63499;53.232;7.492;2023-04-25T01:14:11;26.90;;;3.60;;
74933;SDS011;63499;53.232;7.492;2023-04-25T01:16:38;21.40;;;3.30;;
74933;SDS011;63499;53.232;7.492;2023-04-25T01:19:08;20.38;;;3.03;;
74933;SDS011;63499;53.232;7.492;2023-04-25T01:21:36;13.50;;;2.17;;
74933;SDS011;63499;53.232;7.492;2023-04-25T01:24:03;16.42;;;3.30;;
74933;SDS011;63499;53.232;7.492;2023-04-25T01:26:30;19.05;;;2.35;;
74933;SDS011;63499;53.232;7.492;2023-04-25T01:28:57;18.00;;;2.78;;
74933;SDS011;63499;53.232;7.492;2023-04-25T01:31:24;17.63;;;2.25;;
74933;SDS011;63499;53.232;7.492;2023-04-25T01:33:52;19.42;;;3.03;;
74933;SDS011;63499;53.232;7.492;2023-04-25T01:36:20;20.92;;;2.88;;
74933;SDS011;63499;53.232;7.492;2023-04-25T01:38:47;16.33;;;2.50;;
74933;SDS011;63499;53.232;7.492;2023-04-25T01:41:14;23.88;;;2.70;;
74933;SDS011;63499;53.232;7.492;2023-04-25T01:43:43;19.33;;;2.75;;
74933;SDS011;63499;53.232;7.492;2023-04-25T01:46:10;12.90;;;2.58;;
74933;SDS011;63499;53.232;7.492;2023-04-25T01:48:37;13.27;;;2.72;;
74933;SDS011;63499;53.232;7.492;2023-04-25T01:51:04;22.50;;;2.75;;
74933;SDS011;63499;53.232;7.492;2023-04-25T01:53:30;22.92;;;2.63;;
74933;SDS011;63499;53.232;7.492;2023-04-25T01:55:58;19.10;;;2.75;;
74933;SDS011;63499;53.232;7.492;2023-04-25T01:58:28;19.80;;;2.75;;
74933;SDS011;63499;53.232;7.492;2023-04-25T02:01:01;15.27;;;2.50;;
74933;SDS011;63499;53.232;7.492;2023-04-25T02:03:34;18.95;;;2.65;;
74933;SDS011;63499;53.232;7.492;2023-04-25T02:06:03;21.50;;;2.78;;
74933;SDS011;63499;53.232;7.492;2023-04-25T02:08:32;18.38;;;2.72;;
74933;SDS011;63499;53.232;7.492;2023-04-25T02:10:58;17.40;;;3.22;;
74933;SDS011;63499;53.232;7.492;2023-04-25T02:13:32;15.18;;;2.50;;
74933;SDS011;63499;53.232;7.492;2023-04-25T02:16:11;16.85;;;2.78;;
74933;SDS011;63499;53.232;7.492;2023-04-25T03:20:10;12.40;;;5.00;;
74933;SDS011;63499;53.232;7.492;2023-04-25T03:22:39;12.32;;;1.90;;
74933;SDS011;63499;53.232;7.492;2023-04-25T03:25:06;14.73;;;2.00;;
74933;SDS011;63499;53.232;7.492;2023-04-25T03:27:34;13.00;;;1.85;;
74933;SDS011;63499;53.232;7.492;2023-04-25T03:30:01;18.00;;;2.70;;
74933;SDS011;63499;53.232;7.492;2023-04-25T03:32:28;8.70;;;1.67;;
74933;SDS011;63499;53.232;7.492;2023-04-25T03:34:55;14.18;;;2.28;;
74933;SDS011;63499;53.232;7.492;2023-04-25T03:37:24;9.88;;;1.75;;
74933;SDS011;63499;53.232;7.492;2023-04-25T03:39:52;13.45;;;2.10;;
74933;SDS011;63499;53.232;7.492;2023-04-25T03:42:21;13.55;;;2.05;;
74933;SDS011;63499;53.232;7.492;2023-04-25T03:44:49;12.43;;;1.88;;
74933;SDS011;63499;53.232;7.492;2023-04-25T03:47:18;12.25;;;1.63;;
74933;SDS011;63499;53.232;7.492;2023-04-25T03:49:45;9.95;;;2.22;;
74933;SDS011;63499;53.232;7.492;2023-04-25T03:52:12;15.20;;;1.88;;
74933;SDS011;63499;53.232;7.492;2023-04-25T03:54:40;16.25;;;1.73;;
74933;SDS011;63499;53.232;7.492;2023-04-25T03:57:12;14.30;;;2.63;;
74933;SDS011;63499;53.232;7.492;2023-04-25T03:59:39;16.52;;;3.13;;
74933;SDS011;63499;53.232;7.492;2023-04-25T04:02:08;16.33;;;2.38;;
74933;SDS011;63499;53.232;7.492;2023-04-25T04:04:35;18.00;;;2.38;;
74933;SDS011;63499;53.232;7.492;2023-04-25T04:07:02;13.73;;;1.70;;
74933;SDS011;63499;53.232;7.492;2023-04-25T04:09:33;16.25;;;2.28;;
74933;SDS011;63499;53.232;7.492;2023-04-25T04:12:04;11.63;;;1.73;;
74933;SDS011;63499;53.232;7.492;2023-04-25T04:14:32;14.43;;;3.28;;
74933;SDS011;63499;53.232;7.492;2023-04-25T04:16:59;17.45;;;1.95;;
74933;SDS011;63499;53.232;7.492;2023-04-25T04:19:27;12.43;;;2.75;;
74933;SDS011;63499;53.232;7.492;2023-04-25T04:22:22;11.38;;;2.30;;
74933;SDS011;63499;53.232;7.492;2023-04-25T04:24:51;16.55;;;2.63;;
74933;SDS011;63499;53.232;7.492;2023-04-25T04:27:26;12.60;;;2.10;;
74933;SDS011;63499;53.232;7.492;2023-04-25T04:30:09;14.77;;;1.85;;
74933;SDS011;63499;53.232;7.492;2023-04-25T04:32:45;8.82;;;1.77;;
74933;SDS011;63499;53.232;7.492;2023-04-25T04:35:14;21.17;;;2.67;;
74933;SDS011;63499;53.232;7.492;2023-04-25T04:37:40;11.32;;;2.17;;
74933;SDS011;63499;53.232;7.492;2023-04-25T04:40:10;11.65;;;1.58;;
74933;SDS011;63499;53.232;7.492;2023-04-25T04:43:12;9.63;;;2.17;;
74933;SDS011;63499;53.232;7.492;2023-04-25T04:45:42;15.55;;;2.15;;
74933;SDS011;63499;53.232;7.492;2023-04-25T04:48:18;18.08;;;2.20;;
74933;SDS011;63499;53.232;7.492;2023-04-25T04:51:05;11.07;;;1.92;;
74933;SDS011;63499;53.232;7.492;2023-04-25T04:53:54;13.45;;;2.13;;
74933;SDS011;63499;53.232;7.492;2023-04-25T04:56:40;16.10;;;2.17;;
74933;SDS011;63499;53.232;7.492;2023-04-25T04:59:22;19.70;;;2.38;;
74933;SDS011;63499;53.232;7.492;2023-04-25T05:02:04;15.68;;;2.55;;
74933;SDS011;63499;53.232;7.492;2023-04-25T05:04:46;13.05;;;2.28;;
74933;SDS011;63499;53.232;7.492;2023-04-25T05:07:25;10.85;;;2.33;;
74933;SDS011;63499;53.232;7.492;2023-04-25T05:10:27;15.18;;;2.45;;
74933;SDS011;63499;53.232;7.492;2023-04-25T05:13:32;13.15;;;1.80;;
74933;SDS011;63499;53.232;7.492;2023-04-25T05:16:22;13.82;;;1.77;;
74933;SDS011;63499;53.232;7.492;2023-04-25T05:18:58;14.02;;;2.00;;
74933;SDS011;63499;53.232;7.492;2023-04-25T05:21:41;10.13;;;1.50;;
74933;SDS011;63499;53.232;7.492;2023-04-25T05:24:47;12.88;;;1.95;;
74933;SDS011;63499;53.232;7.492;2023-04-25T05:27:28;12.18;;;2.70;;
74933;SDS011;63499;53.232;7.492;2023-04-25T05:30:18;12.40;;;2.03;;
74933;SDS011;63499;53.232;7.492;2023-04-25T05:32:58;4.78;;;0.93;;
74933;SDS011;63499;53.232;7.492;2023-04-25T05:35:26;11.75;;;1.33;;
74933;SDS011;63499;53.232;7.492;2023-04-25T05:37:52;12.90;;;1.58;;
74933;SDS011;63499;53.232;7.492;2023-04-25T05:40:27;8.98;;;1.33;;
74933;SDS011;63499;53.232;7.492;2023-04-25T05:43:20;6.47;;;1.20;;
74933;SDS011;63499;53.232;7.492;2023-04-25T05:46:07;9.20;;;1.88;;
74933;SDS011;63499;53.232;7.492;2023-04-25T05:48:59;5.93;;;0.80;;
74933;SDS011;63499;53.232;7.492;2023-04-25T05:51:53;8.70;;;1.35;;
74933;SDS011;63499;53.232;7.492;2023-04-25T05:54:32;4.95;;;0.63;;
74933;SDS011;63499;53.232;7.492;2023-04-25T05:56:59;11.60;;;1.42;;
74933;SDS011;63499;53.232;7.492;2023-04-25T05:59:25;8.57;;;1.25;;
74933;SDS011;63499;53.232;7.492;2023-04-25T06:01:52;11.15;;;1.40;;
74933;SDS011;63499;53.232;7.492;2023-04-25T06:04:20;8.45;;;1.33;;
74933;SDS011;63499;53.232;7.492;2023-04-25T06:06:46;11.57;;;1.38;;
74933;SDS011;63499;53.232;7.492;2023-04-25T06:09:13;8.73;;;1.75;;
74933;SDS011;63499;53.232;7.492;2023-04-25T06:11:40;6.93;;;1.52;;
74933;SDS011;63499;53.232;7.492;2023-04-25T06:14:06;15.68;;;1.65;;
74933;SDS011;63499;53.232;7.492;2023-04-25T06:16:36;13.20;;;1.33;;
74933;SDS011;63499;53.232;7.492;2023-04-25T06:19:04;11.68;;;2.08;;
74933;SDS011;63499;53.232;7.492;2023-04-25T06:21:30;9.30;;;1.58;;
74933;SDS011;63499;53.232;7.492;2023-04-25T06:23:58;13.65;;;2.22;;
74933;SDS011;63499;53.232;7.492;2023-04-25T06:26:25;9.65;;;1.30;;
74933;SDS011;63499;53.232;7.492;2023-04-25T06:28:52;8.93;;;1.80;;
74933;SDS011;63499;53.232;7.492;2023-04-25T06:31:18;7.20;;;1.33;;
74933;SDS011;63499;53.232;7.492;2023-04-25T06:33:46;14.77;;;1.98;;
74933;SDS011;63499;53.232;7.492;2023-04-25T06:36:13;11.70;;;2.08;;
74933;SDS011;63499;53.232;7.492;2023-04-25T06:38:42;12.75;;;2.35;;
74933;SDS011;63499;53.232;7.492;2023-04-25T06:41:10;19.40;;;2.13;;
74933;SDS011;63499;53.232;7.492;2023-04-25T06:43:36;9.75;;;1.42;;
74933;SDS011;63499;53.232;7.492;2023-04-25T06:46:09;7.13;;;1.20;;
74933;SDS011;63499;53.232;7.492;2023-04-25T06:48:42;7.78;;;1.80;;
74933;SDS011;63499;53.232;7.492;2023-04-25T06:51:08;6.00;;;1.65;;
74933;SDS011;63499;53.232;7.492;2023-04-25T06:53:36;17.13;;;1.35;;
74933;SDS011;63499;53.232;7.492;2023-04-25T06:56:06;7.70;;;1.92;;
74933;SDS011;63499;53.232;7.492;2023-04-25T06:58:52;6.45;;;1.52;;
74933;SDS011;63499;53.232;7.492;2023-04-25T07:01:39;5.40;;;0.90;;
74933;SDS011;63499;53.232;7.492;2023-04-25T07:04:13;6.57;;;1.30;;
74933;SDS011;63499;53.232;7.492;2023-04-25T07:06:44;9.98;;;1.08;;
74933;SDS011;63499;53.232;7.492;2023-04-25T07:09:15;13.05;;;1.40;;
74933;SDS011;63499;53.232;7.492;2023-04-25T07:11:46;10.32;;;1.45;;
74933;SDS011;63499;53.232;7.492;2023-04-25T07:14:13;11.73;;;1.90;;
74933;SDS011;63499;53.232;7.492;2023-04-25T07:16:40;12.30;;;2.30;;
74933;SDS011;63499;53.232;7.492;2023-04-25T07:19:07;10.95;;;1.30;;
74933;SDS011;63499;53.232;7.492;2023-04-25T07:21:34;8.45;;;0.90;;
74933;SDS011;63499;53.232;7.492;2023-04-25T07:24:02;6.15;;;1.35;;
74933;SDS011;63499;53.232;7.492;2023-04-25T07:26:33;13.80;;;1.52;;
74933;SDS011;63499;53.232;7.492;2023-04-25T07:29:23;7.10;;;1.45;;
74933;SDS011;63499;53.232;7.492;2023-04-25T07:31:50;8.93;;;1.67;;
74933;SDS011;63499;53.232;7.492;2023-04-25T07:34:16;8.30;;;1.45;;
74933;SDS011;63499;53.232;7.492;2023-04-25T07:36:43;7.85;;;1.30;;
74933;SDS011;63499;53.232;7.492;2023-04-25T07:39:10;9.20;;;1.10;;
74933;SDS011;63499;53.232;7.492;2023-04-25T07:41:37;12.55;;;1.48;;
74933;SDS011;63499;53.232;7.492;2023-04-25T07:44:05;10.15;;;1.40;;
74933;SDS011;63499;53.232;7.492;2023-04-25T07:46:34;9.20;;;1.17;;
74933;SDS011;63499;53.232;7.492;2023-04-25T07:49:01;5.95;;;1.33;;
74933;SDS011;63499;53.232;7.492;2023-04-25T07:51:28;5.25;;;0.98;;
74933;SDS011;63499;53.232;7.492;2023-04-25T07:53:58;6.50;;;0.90;;
74933;SDS011;63499;53.232;7.492;2023-04-25T07:56:26;6.13;;;0.82;;
74933;SDS011;63499;53.232;7.492;2023-04-25T07:58:53;6.88;;;1.05;;
74933;SDS011;63499;53.232;7.492;2023-04-25T08:01:21;4.25;;;0.63;;
74933;SDS011;63499;53.232;7.492;2023-04-25T08:04:00;4.43;;;0.90;;
74933;SDS011;63499;53.232;7.492;2023-04-25T08:06:39;11.02;;;1.38;;
74933;SDS011;63499;53.232;7.492;2023-04-25T08:09:11;11.40;;;1.33;;
74933;SDS011;63499;53.232;7.492;2023-04-25T08:11:41;7.72;;;1.05;;
74933;SDS011;63499;53.232;7.492;2023-04-25T08:14:10;5.68;;;1.33;;
74933;SDS011;63499;53.232;7.492;2023-04-25T08:16:38;7.57;;;1.40;;
74933;SDS011;63499;53.232;7.492;2023-04-25T08:19:05;4.65;;;0.90;;
74933;SDS011;63499;53.232;7.492;2023-04-25T08:21:33;7.05;;;1.23;;
74933;SDS011;63499;53.232;7.492;2023-04-25T08:24:03;11.00;;;1.58;;
74933;SDS011;63499;53.232;7.492;2023-04-25T08:26:34;9.73;;;1.08;;
74933;SDS011;63499;53.232;7.492;2023-04-25T08:29:03;12.23;;;1.55;;
74933;SDS011;63499;53.232;7.492;2023-04-25T08:31:30;7.75;;;1.40;;
74933;SDS011;63499;53.232;7.492;2023-04-25T08:33:59;7.60;;;1.08;;
74933;SDS011;63499;53.232;7.492;2023-04-25T08:36:41;5.18;;;1.20;;
74933;SDS011;63499;53.232;7.492;2023-04-25T08:42:26;8.55;;;1.15;;
74933;SDS011;63499;53.232;7.492;2023-04-25T08:44:54;8.90;;;1.20;;
74933;SDS011;63499;53.232;7.492;2023-04-25T08:47:25;7.60;;;1.77;;
74933;SDS011;63499;53.232;7.492;2023-04-25T08:49:55;5.88;;;0.82;;
74933;SDS011;63499;53.232;7.492;2023-04-25T08:52:22;11.23;;;1.33;;
74933;SDS011;63499;53.232;7.492;2023-04-25T08:54:51;11.45;;;1.65;;
74933;SDS011;63499;53.232;7.492;2023-04-25T08:57:19;7.28;;;1.10;;
74933;SDS011;63499;53.232;7.492;2023-04-25T08:59:48;13.20;;;1.75;;
74933;SDS011;63499;53.232;7.492;2023-04-25T09:02:16;8.57;;;1.45;;
74933;SDS011;63499;53.232;7.492;2023-04-25T09:04:47;9.88;;;1.52;;
74933;SDS011;63499;53.232;7.492;2023-04-25T09:07:14;12.05;;;1.50;;
74933;SDS011;63499;53.232;7.492;2023-04-25T09:09:44;10.50;;;1.73;;
74933;SDS011;63499;53.232;7.492;2023-04-25T09:12:10;7.32;;;1.05;;
74933;SDS011;63499;53.232;7.492;2023-04-25T09:14:37;10.10;;;1.92;;
74933;SDS011;63499;53.232;7.492;2023-04-25T09:17:19;7.82;;;1.45;;
74933;SDS011;63499;53.232;7.492;2023-04-25T09:19:48;13.23;;;1.58;;
74933;SDS011;63499;53.232;7.492;2023-04-25T09:22:26;21.80;;;2.13;;
74933;SDS011;63499;53.232;7.492;2023-04-25T09:24:52;5.95;;;1.20;;
74933;SDS011;63499;53.232;7.492;2023-04-25T09:27:23;11.90;;;1.80;;
74933;SDS011;63499;53.232;7.492;2023-04-25T09:30:09;9.02;;;1.48;;
74933;SDS011;63499;53.232;7.492;2023-04-25T09:33:08;10.13;;;1.83;;
74933;SDS011;63499;53.232;7.492;2023-04-25T09:35:42;9.23;;;1.90;;
74933;SDS011;63499;53.232;7.492;2023-04-25T09:38:16;10.50;;;1.10;;
74933;SDS011;63499;53.232;7.492;2023-04-25T09:40:53;11.02;;;1.85;;
74933;SDS011;63499;53.232;7.492;2023-04-25T09:43:33;12.43;;;1.70;;
74933;SDS011;63499;53.232;7.492;2023-04-25T09:46:00;10.48;;;1.52;;
74933;SDS011;63499;53.232;7.492;2023-04-25T09:48:28;9.25;;;1.17;;
74933;SDS011;63499;53.232;7.492;2023-04-25T09:53:41;5.55;;;1.50;;
74933;SDS011;63499;53.232;7.492;2023-04-25T09:56:22;8.50;;;1.60;;
74933;SDS011;63499;53.232;7.492;2023-04-25T09:58:49;9.70;;;1.50;;
74933;SDS011;63499;53.232;7.492;2023-04-25T10:01:19;9.55;;;1.50;;
74933;SDS011;63499;53.232;7.492;2023-04-25T10:04:00;8.23;;;1.20;;
74933;SDS011;63499;53.232;7.492;2023-04-25T10:06:52;7.97;;;1.65;;
74933;SDS011;63499;53.232;7.492;2023-04-25T10:09:21;12.07;;;1.25;;
74933;SDS011;63499;53.232;7.492;2023-04-25T10:11:50;6.90;;;1.50;;
74933;SDS011;63499;53.232;7.492;2023-04-25T10:14:16;7.35;;;1.00;;
74933;SDS011;63499;53.232;7.492;2023-04-25T10:16:44;10.68;;;1.65;;
74933;SDS011;63499;53.232;7.492;2023-04-25T10:19:12;6.35;;;1.20;;
74933;SDS011;63499;53.232;7.492;2023-04-25T10:24:28;5.95;;;1.40;;
74933;SDS011;63499;53.232;7.492;2023-04-25T10:26:55;7.05;;;1.13;;
74933;SDS011;63499;53.232;7.492;2023-04-25T10:29:22;8.23;;;1.10;;
74933;SDS011;63499;53.232;7.492;2023-04-25T10:31:50;6.53;;;1.33;;
74933;SDS011;63499;53.232;7.492;2023-04-25T10:34:16;13.73;;;1.95;;
74933;SDS011;63499;53.232;7.492;2023-04-25T10:36:46;10.32;;;1.75;;
74933;SDS011;63499;53.232;7.492;2023-04-25T10:39:21;6.28;;;1.30;;
74933;SDS011;63499;53.232;7.492;2023-04-25T10:44:19;9.15;;;1.05;;
74933;SDS011;63499;53.232;7.492;2023-04-25T10:46:45;8.23;;;1.10;;
74933;SDS011;63499;53.232;7.492;2023-04-25T10:49:28;6.20;;;1.45;;
74933;SDS011;63499;53.232;7.492;2023-04-25T10:52:40;4.38;;;1.00;;
74933;SDS011;63499;53.232;7.492;2023-04-25T10:54:42;11.07;;;1.65;;
74933;SDS011;63499;53.232;7.492;2023-04-25T10:57:27;11.95;;;1.60;;
74933;SDS011;63499;53.232;7.492;2023-04-25T11:00:16;9.35;;;1.27;;
74933;SDS011;63499;53.232;7.492;2023-04-25T11:02:45;10.38;;;1.50;;
74933;SDS011;63499;53.232;7.492;2023-04-25T11:05:32;10.80;;;1.73;;
74933;SDS011;63499;53.232;7.492;2023-04-25T11:08:00;11.23;;;1.90;;
74933;SDS011;63499;53.232;7.492;2023-04-25T11:10:27;10.35;;;1.38;;
74933;SDS011;63499;53.232;7.492;2023-04-25T11:12:54;7.30;;;1.35;;
74933;SDS011;63499;53.232;7.492;2023-04-25T11:15:24;5.47;;;1.17;;
74933;SDS011;63499;53.232;7.492;2023-04-25T11:17:52;8.65;;;1.25;;
74933;SDS011;63499;53.232;7.492;2023-04-25T11:20:19;6.10;;;0.93;;
74933;SDS011;63499;53.232;7.492;2023-04-25T11:22:46;8.02;;;0.98;;
74933;SDS011;63499;53.232;7.492;2023-04-25T11:25:14;9.48;;;1.33;;
74933;SDS011;63499;53.232;7.492;2023-04-25T11:27:54;6.25;;;1.13;;
74933;SDS011;63499;53.232;7.492;2023-04-25T11:30:23;10.10;;;1.10;;
74933;SDS011;63499;53.232;7.492;2023-04-25T11:32:50;7.68;;;0.88;;
74933;SDS011;63499;53.232;7.492;2023-04-25T11:35:18;9.50;;;1.20;;
74933;SDS011;63499;53.232;7.492;2023-04-25T11:37:45;3.35;;;0.80;;
74933;SDS011;63499;53.232;7.492;2023-04-25T11:40:12;10.48;;;0.90;;
74933;SDS011;63499;53.232;7.492;2023-04-25T11:42:39;11.07;;;1.10;;
74933;SDS011;63499;53.232;7.492;2023-04-25T11:45:09;8.70;;;1.55;;
74933;SDS011;63499;53.232;7.492;2023-04-25T11:47:37;5.22;;;0.95;;
74933;SDS011;63499;53.232;7.492;2023-04-25T11:50:03;10.18;;;1.60;;
74933;SDS011;63499;53.232;7.492;2023-04-25T11:52:38;7.57;;;1.55;;
74933;SDS011;63499;53.232;7.492;2023-04-25T11:55:09;19.38;;;3.42;;
74933;SDS011;63499;53.232;7.492;2023-04-25T11:57:43;9.88;;;1.50;;
74933;SDS011;63499;53.232;7.492;2023-04-25T12:00:12;11.40;;;1.63;;
74933;SDS011;63499;53.232;7.492;2023-04-25T12:02:44;7.78;;;1.38;;
74933;SDS011;63499;53.232;7.492;2023-04-25T12:05:23;9.65;;;1.75;;
74933;SDS011;63499;53.232;7.492;2023-04-25T12:07:51;5.07;;;1.00;;
74933;SDS011;63499;53.232;7.492;2023-04-25T12:10:17;6.72;;;1.20;;
74933;SDS011;63499;53.232;7.492;2023-04-25T12:12:45;4.57;;;1.23;;
74933;SDS011;63499;53.232;7.492;2023-04-25T12:15:13;6.93;;;1.08;;
74933;SDS011;63499;53.232;7.492;2023-04-25T12:17:51;5.65;;;1.15;;
74933;SDS011;63499;53.232;7.492;2023-04-25T12:20:31;9.40;;;1.30;;
74933;SDS011;63499;53.232;7.492;2023-04-25T12:22:57;5.78;;;0.98;;
74933;SDS011;63499;53.232;7.492;2023-04-25T12:25:39;5.55;;;1.00;;
74933;SDS011;63499;53.232;7.492;2023-04-25T12:33:23;8.07;;;1.23;;
74933;SDS011;63499;53.232;7.492;2023-04-25T12:35:50;6.78;;;0.90;;
74933;SDS011;63499;53.232;7.492;2023-04-25T12:38:27;5.95;;;1.08;;
74933;SDS011;63499;53.232;7.492;2023-04-25T12:40:57;6.63;;;1.38;;
74933;SDS011;63499;53.232;7.492;2023-04-25T12:43:24;3.47;;;0.73;;
74933;SDS011;63499;53.232;7.492;2023-04-25T12:45:51;3.42;;;0.98;;
74933;SDS011;63499;53.232;7.492;2023-04-25T12:48:19;3.70;;;0.60;;
74933;SDS011;63499;53.232;7.492;2023-04-25T12:50:46;4.78;;;0.90;;
74933;SDS011;63499;53.232;7.492;2023-04-25T12:53:16;6.53;;;0.80;;
74933;SDS011;63499;53.232;7.492;2023-04-25T12:55:44;6.20;;;1.23;;
74933;SDS011;63499;53.232;7.492;2023-04-25T12:58:17;6.70;;;1.03;;
74933;SDS011;63499;53.232;7.492;2023-04-25T13:00:45;4.95;;;1.00;;
74933;SDS011;63499;53.232;7.492;2023-04-25T13:03:11;4.40;;;0.68;;
74933;SDS011;63499;53.232;7.492;2023-04-25T14:34:36;11.48;;;1.10;;
74933;SDS011;63499;53.232;7.492;2023-04-25T14:37:03;10.95;;;1.33;;
74933;SDS011;63499;53.232;7.492;2023-04-25T14:39:29;13.48;;;1.58;;
74933;SDS011;63499;53.232;7.492;2023-04-25T14:41:56;10.38;;;1.35;;
74933;SDS011;63499;53.232;7.492;2023-04-25T14:44:23;7.90;;;1.25;;
74933;SDS011;63499;53.232;7.492;2023-04-25T14:46:50;9.75;;;1.23;;
74933;SDS011;63499;53.232;7.492;2023-04-25T14:49:17;8.88;;;1.10;;
74933;SDS011;63499;53.232;7.492;2023-04-25T14:51:43;8.13;;;0.95;;
74933;SDS011;63499;53.232;7.492;2023-04-25T14:54:10;8.65;;;1.10;;
74933;SDS011;63499;53.232;7.492;2023-04-25T14:56:37;11.38;;;1.73;;
74933;SDS011;63499;53.232;7.492;2023-04-25T14:59:03;7.53;;;1.60;;
74933;SDS011;63499;53.232;7.492;2023-04-25T15:01:29;8.82;;;1.13;;
74933;SDS011;63499;53.232;7.492;2023-04-25T15:03:56;7.75;;;1.35;;
74933;SDS011;63499;53.232;7.492;2023-04-25T15:06:22;10.57;;;1.30;;
74933;SDS011;63499;53.232;7.492;2023-04-25T15:08:52;9.13;;;1.52;;
74933;SDS011;63499;53.232;7.492;2023-04-25T15:11:18;7.30;;;1.02;;
74933;SDS011;63499;53.232;7.492;2023-04-25T15:13:45;6.20;;;1.45;;
74933;SDS011;63499;53.232;7.492;2023-04-25T15:16:12;8.10;;;0.90;;
74933;SDS011;63499;53.232;7.492;2023-04-25T15:18:39;4.65;;;0.82;;
74933;SDS011;63499;53.232;7.492;2023-04-25T15:21:06;6.88;;;0.73;;
74933;SDS011;63499;53.232;7.492;2023-04-25T15:23:33;9.00;;;1.08;;
74933;SDS011;63499;53.232;7.492;2023-04-25T15:25:59;5.47;;;1.10;;
74933;SDS011;63499;53.232;7.492;2023-04-25T15:28:25;7.40;;;1.33;;
74933;SDS011;63499;53.232;7.492;2023-04-25T15:30:51;5.65;;;0.90;;
74933;SDS011;63499;53.232;7.492;2023-04-25T15:33:20;9.15;;;1.55;;
74933;SDS011;63499;53.232;7.492;2023-04-25T15:35:46;7.57;;;0.90;;
74933;SDS011;63499;53.232;7.492;2023-04-25T15:38:13;12.45;;;1.33;;
74933;SDS011;63499;53.232;7.492;2023-04-25T15:40:39;9.55;;;1.50;;
74933;SDS011;63499;53.232;7.492;2023-04-25T15:43:07;8.05;;;1.30;;
74933;SDS011;63499;53.232;7.492;2023-04-25T15:45:40;7.63;;;1.08;;
74933;SDS011;63499;53.232;7.492;2023-04-25T15:48:07;6.70;;;1.08;;
74933;SDS011;63499;53.232;7.492;2023-04-25T15:50:33;6.28;;;1.02;;
74933;SDS011;63499;53.232;7.492;2023-04-25T15:53:01;7.00;;;0.73;;
74933;SDS011;63499;53.232;7.492;2023-04-25T15:55:27;8.27;;;1.48;;
74933;SDS011;63499;53.232;7.492;2023-04-25T15:57:53;6.15;;;0.93;;
74933;SDS011;63499;53.232;7.492;2023-04-25T16:00:20;8.35;;;1.17;;
74933;SDS011;63499;53.232;7.492;2023-04-25T16:02:47;9.82;;;1.38;;
74933;SDS011;63499;53.232;7.492;2023-04-25T16:05:13;9.50;;;1.00;;
74933;SDS011;63499;53.232;7.492;2023-04-25T16:07:40;7.25;;;1.23;;
74933;SDS011;63499;53.232;7.492;2023-04-25T16:10:08;6.30;;;1.00;;
74933;SDS011;63499;53.232;7.492;2023-04-25T16:12:36;5.20;;;1.40;;
74933;SDS011;63499;53.232;7.492;2023-04-25T16:15:03;7.80;;;1.05;;
74933;SDS011;63499;53.232;7.492;2023-04-25T16:17:30;5.50;;;0.98;;
74933;SDS011;63499;53.232;7.492;2023-04-25T16:19:58;13.45;;;1.52;;
74933;SDS011;63499;53.232;7.492;2023-04-25T16:22:26;4.13;;;1.10;;
74933;SDS011;63499;53.232;7.492;2023-04-25T16:24:53;12.15;;;1.80;;
74933;SDS011;63499;53.232;7.492;2023-04-25T16:27:19;5.03;;;0.93;;
74933;SDS011;63499;53.232;7.492;2023-04-25T16:29:46;16.95;;;2.50;;
74933;SDS011;63499;53.232;7.492;2023-04-25T16:32:13;8.90;;;1.20;;
74933;SDS011;63499;53.232;7.492;2023-04-25T16:34:39;9.93;;;1.27;;
74933;SDS011;63499;53.232;7.492;2023-04-25T16:37:06;3.38;;;0.93;;
74933;SDS011;63499;53.232;7.492;2023-04-25T16:39:32;6.13;;;0.90;;
74933;SDS011;63499;53.232;7.492;2023-04-25T16:41:58;8.07;;;1.08;;
74933;SDS011;63499;53.232;7.492;2023-04-25T16:44:24;8.73;;;1.05;;
74933;SDS011;63499;53.232;7.492;2023-04-25T16:46:50;11.63;;;2.28;;
74933;SDS011;63499;53.232;7.492;2023-04-25T16:49:17;8.88;;;1.02;;
74933;SDS011;63499;53.232;7.492;2023-04-25T16:51:43;9.55;;;1.50;;
74933;SDS011;63499;53.232;7.492;2023-04-25T16:54:11;4.57;;;1.13;;
74933;SDS011;63499;53.232;7.492;2023-04-25T16:56:37;8.63;;;1.17;;
74933;SDS011;63499;53.232;7.492;2023-04-25T16:59:03;9.57;;;1.15;;
74933;SDS011;63499;53.232;7.492;2023-04-25T17:01:30;10.02;;;1.17;;
74933;SDS011;63499;53.232;7.492;2023-04-25T17:03:57;6.95;;;1.50;;
74933;SDS011;63499;53.232;7.492;2023-04-25T17:06:24;7.45;;;1.00;;
74933;SDS011;63499;53.232;7.492;2023-04-25T17:08:57;6.57;;;2.03;;
74933;SDS011;63499;53.232;7.492;2023-04-25T17:11:23;10.38;;;1.10;;
74933;SDS011;63499;53.232;7.492;2023-04-25T17:13:50;9.50;;;1.40;;
74933;SDS011;63499;53.232;7.492;2023-04-25T17:16:19;7.72;;;1.60;;
74933;SDS011;63499;53.232;7.492;2023-04-25T17:18:50;11.27;;;1.25;;
74933;SDS011;63499;53.232;7.492;2023-04-25T17:21:16;6.28;;;1.10;;
74933;SDS011;63499;53.232;7.492;2023-04-25T17:23:43;14.98;;;1.58;;
74933;SDS011;63499;53.232;7.492;2023-04-25T17:26:12;8.55;;;1.65;;
74933;SDS011;63499;53.232;7.492;2023-04-25T17:28:39;10.57;;;1.65;;
74933;SDS011;63499;53.232;7.492;2023-04-25T17:31:07;10.57;;;1.48;;
74933;SDS011;63499;53.232;7.492;2023-04-25T17:33:33;17.08;;;1.83;;
74933;SDS011;63499;53.232;7.492;2023-04-25T17:36:00;13.38;;;1.75;;
74933;SDS011;63499;53.232;7.492;2023-04-25T17:38:28;16.50;;;1.92;;
74933;SDS011;63499;53.232;7.492;2023-04-25T17:40:54;12.05;;;1.70;;
74933;SDS011;63499;53.232;7.492;2023-04-25T17:43:20;10.52;;;1.75;;
74933;SDS011;63499;53.232;7.492;2023-04-25T17:45:47;13.73;;;1.42;;
74933;SDS011;63499;53.232;7.492;2023-04-25T17:48:13;9.05;;;1.67;;
74933;SDS011;63499;53.232;7.492;2023-04-25T17:50:40;10.48;;;1.33;;
74933;SDS011;63499;53.232;7.492;2023-04-25T17:53:06;11.77;;;1.42;;
74933;SDS011;63499;53.232;7.492;2023-04-25T17:55:33;8.32;;;1.30;;
74933;SDS011;63499;53.232;7.492;2023-04-25T17:57:59;12.07;;;1.23;;
74933;SDS011;63499;53.232;7.492;2023-04-25T18:00:25;12.75;;;2.25;;
74933;SDS011;63499;53.232;7.492;2023-04-25T18:02:52;7.13;;;1.50;;
74933;SDS011;63499;53.232;7.492;2023-04-25T18:05:18;10.68;;;1.80;;
74933;SDS011;63499;53.232;7.492;2023-04-25T18:07:47;13.30;;;1.85;;
74933;SDS011;63499;53.232;7.492;2023-04-25T18:10:13;7.60;;;1.50;;
74933;SDS011;63499;53.232;7.492;2023-04-25T18:12:40;10.27;;;1.63;;
74933;SDS011;63499;53.232;7.492;2023-04-25T18:15:07;11.60;;;1.42;;
74933;SDS011;63499;53.232;7.492;2023-04-25T18:17:34;11.23;;;1.60;;
74933;SDS011;63499;53.232;7.492;2023-04-25T18:20:08;13.07;;;2.05;;
74933;SDS011;63499;53.232;7.492;2023-04-25T18:22:38;9.07;;;1.60;;
74933;SDS011;63499;53.232;7.492;2023-04-25T18:25:04;13.02;;;2.05;;
74933;SDS011;63499;53.232;7.492;2023-04-25T18:27:32;10.75;;;2.25;;
74933;SDS011;63499;53.232;7.492;2023-04-25T18:29:58;11.77;;;1.77;;
74933;SDS011;63499;53.232;7.492;2023-04-25T18:32:25;7.32;;;1.83;;
74933;SDS011;63499;53.232;7.492;2023-04-25T18:34:55;15.88;;;2.10;;
74933;SDS011;63499;53.232;7.492;2023-04-25T18:37:22;8.95;;;2.08;;
74933;SDS011;63499;53.232;7.492;2023-04-25T18:39:48;8.45;;;1.30;;
74933;SDS011;63499;53.232;7.492;2023-04-25T18:42:14;5.75;;;1.23;;
74933;SDS011;63499;53.232;7.492;2023-04-25T18:44:41;11.50;;;1.58;;